Time;durP1;ratioP1;P1;durP2;ratioP2;P2;SDS_P1;SDS_P2;PMS_P1;PMS_P2;Temp;Humidity;BMP_temperature;BMP_pressure;BME280_temperature;BME280_humidity;BME280_pressure;Samples;Min_cycle;Max_cycle;Signal;HPM_P1;HPM_P2
2022/08/27 00:02:18;;;;;;;8.30;7.10;;;19.00;99.90;;;;;;8279651;28;20053;-79
2022/08/27 00:06:19;;;;;;;10.30;7.82;;;18.90;99.90;;;;;;8277615;28;20026;-78
2022/08/27 00:10:23;;;;;;;9.40;7.30;;;19.00;99.90;;;;;;8264096;28;20121;-78
2022/08/27 00:14:26;;;;;;;8.93;6.65;;;19.00;99.90;;;;;;8272628;28;20541;-78
2022/08/27 00:18:27;;;;;;;8.32;6.90;;;19.00;99.90;;;;;;8268078;28;20076;-78
2022/08/27 00:22:27;;;;;;;10.48;7.25;;;19.00;99.90;;;;;;8279104;28;20119;-78
2022/08/27 00:26:28;;;;;;;9.23;6.90;;;18.80;99.90;;;;;;8281118;28;20060;-80
2022/08/27 00:30:29;;;;;;;11.07;7.22;;;18.70;99.90;;;;;;8273409;28;20026;-79
2022/08/27 00:34:30;;;;;;;10.05;7.28;;;18.50;99.90;;;;;;8264152;28;20034;-78
2022/08/27 00:38:30;;;;;;;8.48;7.35;;;18.30;99.90;;;;;;8280950;28;20025;-78
2022/08/27 00:42:31;;;;;;;8.93;7.40;;;18.20;99.90;;;;;;8270079;28;20040;-79
2022/08/27 00:46:40;;;;;;;9.27;6.93;;;18.10;99.90;;;;;;8273203;28;20073;-78
2022/08/27 00:50:53;;;;;;;10.18;7.10;;;18.30;99.90;;;;;;8274923;28;20026;-79
2022/08/27 00:55:01;;;;;;;8.43;6.30;;;18.40;99.90;;;;;;8286838;28;20030;-79
2022/08/27 00:59:02;;;;;;;7.47;6.60;;;18.40;99.90;;;;;;8264346;28;20390;-77
2022/08/27 01:03:03;;;;;;;10.15;6.85;;;18.30;99.90;;;;;;8259696;28;20444;-79
2022/08/27 01:07:04;;;;;;;11.35;7.38;;;18.40;99.90;;;;;;8296749;28;20030;-78
2022/08/27 01:11:05;;;;;;;8.50;7.30;;;18.30;99.90;;;;;;8278622;28;20109;-78
2022/08/27 01:15:11;;;;;;;8.70;7.43;;;18.20;99.90;;;;;;8261413;28;20026;-78
2022/08/27 01:19:27;;;;;;;10.02;7.43;;;17.90;99.90;;;;;;8291631;28;20092;-79
2022/08/27 01:23:49;;;;;;;11.02;7.68;;;17.80;99.90;;;;;;8266987;28;20026;-81
2022/08/27 01:27:51;;;;;;;10.05;6.97;;;17.80;99.90;;;;;;8266869;28;20455;-78
2022/08/27 01:31:52;;;;;;;10.70;7.63;;;17.70;99.90;;;;;;8274728;28;20582;-79
2022/08/27 01:35:52;;;;;;;10.77;7.85;;;17.70;99.90;;;;;;8269890;28;20033;-78
2022/08/27 01:39:55;;;;;;;8.68;7.18;;;17.60;99.90;;;;;;8274754;28;20481;-78
2022/08/27 01:43:56;;;;;;;10.20;8.38;;;17.50;99.90;;;;;;8279081;28;20018;-78
2022/08/27 01:47:58;;;;;;;9.00;7.35;;;17.40;99.90;;;;;;8265659;28;20034;-78
2022/08/27 01:51:58;;;;;;;9.60;7.63;;;17.60;99.90;;;;;;8277689;28;20085;-78
2022/08/27 01:55:59;;;;;;;10.25;7.68;;;17.50;99.90;;;;;;8289392;28;20037;-78
2022/08/27 02:00:01;;;;;;;8.98;7.85;;;17.30;99.90;;;;;;8281414;28;20058;-78
2022/08/27 02:04:02;;;;;;;9.77;7.75;;;17.20;99.90;;;;;;8278673;28;20060;-78
2022/08/27 02:08:03;;;;;;;9.70;7.45;;;17.20;99.90;;;;;;8272978;28;20065;-78
2022/08/27 02:12:04;;;;;;;9.50;6.65;;;17.40;99.90;;;;;;8273311;28;20057;-78
2022/08/27 02:16:05;;;;;;;9.43;7.13;;;17.40;99.90;;;;;;8274008;28;20049;-78
2022/08/27 02:20:08;;;;;;;10.05;7.47;;;17.30;99.90;;;;;;8277517;28;20022;-78
2022/08/27 02:24:09;;;;;;;9.45;7.60;;;17.20;99.90;;;;;;8268583;28;20014;-78
2022/08/27 02:28:09;;;;;;;9.18;7.45;;;17.20;99.90;;;;;;8270710;28;20026;-79
2022/08/27 02:32:10;;;;;;;9.15;7.75;;;17.10;99.90;;;;;;8273948;28;20065;-78
2022/08/27 02:36:11;;;;;;;9.73;7.82;;;17.10;99.90;;;;;;8290281;28;20153;-78
2022/08/27 02:40:16;;;;;;;10.43;7.72;;;17.30;99.90;;;;;;8283337;28;20014;-78
2022/08/27 02:44:17;;;;;;;13.15;9.23;;;17.20;99.90;;;;;;8288502;28;20057;-79
2022/08/27 02:48:17;;;;;;;12.60;9.40;;;17.30;99.90;;;;;;8290335;28;20026;-78
2022/08/27 02:52:18;;;;;;;12.55;9.00;;;17.10;99.90;;;;;;8279709;28;20550;-78
2022/08/27 02:56:18;;;;;;;12.10;9.75;;;17.10;99.90;;;;;;8277289;28;20514;-78
2022/08/27 03:00:21;;;;;;;13.77;9.82;;;17.00;99.90;;;;;;8282052;28;20050;-78
2022/08/27 03:04:22;;;;;;;15.13;9.25;;;17.10;99.90;;;;;;8277274;28;20026;-80
2022/08/27 03:08:25;;;;;;;13.15;9.57;;;16.90;99.90;;;;;;8276937;28;20026;-78
2022/08/27 03:12:25;;;;;;;12.95;9.30;;;16.90;99.90;;;;;;8287259;28;20022;-78
2022/08/27 03:16:26;;;;;;;10.48;8.40;;;17.10;99.90;;;;;;8276777;28;20021;-78
2022/08/27 03:20:27;;;;;;;12.40;8.60;;;17.30;99.90;;;;;;8278539;28;20667;-78
2022/08/27 03:24:28;;;;;;;10.52;8.65;;;17.10;99.90;;;;;;8277490;28;20022;-79
2022/08/27 03:28:32;;;;;;;12.05;8.52;;;17.10;99.90;;;;;;8295275;28;20025;-78
2022/08/27 03:32:34;;;;;;;10.82;7.88;;;17.30;99.90;;;;;;8287533;28;20028;-77
2022/08/27 03:36:35;;;;;;;10.75;7.63;;;17.30;99.90;;;;;;8281099;28;20499;-78
2022/08/27 03:40:36;;;;;;;11.68;8.07;;;17.20;99.90;;;;;;8279569;28;20025;-79
2022/08/27 03:44:37;;;;;;;13.18;9.15;;;17.00;99.90;;;;;;8284199;28;20026;-78
2022/08/27 03:48:37;;;;;;;11.25;7.82;;;16.80;99.90;;;;;;8275467;28;20411;-78
2022/08/27 03:52:38;;;;;;;12.75;8.65;;;16.60;99.90;;;;;;8285142;28;20026;-78
2022/08/27 03:56:40;;;;;;;11.20;8.27;;;16.80;99.90;;;;;;8306717;28;20054;-78
2022/08/27 04:00:41;;;;;;;12.15;8.50;;;16.70;99.90;;;;;;8281653;28;20021;-78
2022/08/27 04:04:41;;;;;;;12.10;8.45;;;16.50;99.90;;;;;;8265975;28;20027;-78
2022/08/27 04:08:42;;;;;;;10.68;8.27;;;16.60;99.90;;;;;;8268424;28;20522;-78
2022/08/27 04:12:43;;;;;;;12.45;7.90;;;16.60;99.90;;;;;;8299989;28;20048;-78
2022/08/27 04:16:44;;;;;;;10.80;7.80;;;16.50;99.90;;;;;;8271457;28;20030;-78
2022/08/27 04:20:47;;;;;;;11.27;7.57;;;16.60;99.90;;;;;;8274849;28;20041;-78
2022/08/27 04:24:48;;;;;;;12.77;8.10;;;16.50;99.90;;;;;;8281359;28;20120;-79
2022/08/27 04:28:49;;;;;;;10.68;7.78;;;16.50;99.90;;;;;;8282375;28;20057;-78
2022/08/27 04:32:49;;;;;;;11.85;8.45;;;16.60;99.90;;;;;;8276881;28;20664;-79
2022/08/27 04:36:50;;;;;;;10.23;7.28;;;16.40;99.90;;;;;;8282853;28;20022;-78
2022/08/27 04:45:09;;;;;;;8.90;6.70;;;16.40;99.90;;;;;;8272324;28;20080;-78
2022/08/27 04:49:12;;;;;;;9.05;6.68;;;16.50;99.90;;;;;;8270368;28;20021;-78
2022/08/27 04:53:14;;;;;;;8.35;6.53;;;16.50;99.90;;;;;;8278162;28;20033;-77
2022/08/27 04:57:15;;;;;;;8.30;6.53;;;16.60;99.90;;;;;;8287320;28;20431;-78
2022/08/27 05:01:24;;;;;;;9.13;6.60;;;16.60;99.90;;;;;;8269078;28;20022;-78
2022/08/27 05:05:28;;;;;;;11.18;6.15;;;16.70;99.90;;;;;;8278938;28;20018;-79
2022/08/27 05:09:29;;;;;;;9.07;6.03;;;16.70;99.90;;;;;;8303854;23;20050;-89
2022/08/27 05:13:30;;;;;;;10.60;5.68;;;16.70;99.90;;;;;;8232552;28;20520;-91
2022/08/27 05:17:32;;;;;;;8.43;6.50;;;16.80;99.90;;;;;;8241725;28;20488;-90
2022/08/27 05:21:35;;;;;;;8.35;6.40;;;16.90;99.90;;;;;;8249896;28;20496;-90
2022/08/27 05:25:41;;;;;;;7.93;5.88;;;16.90;99.90;;;;;;8242962;28;20081;-91
2022/08/27 05:29:41;;;;;;;8.45;6.63;;;17.00;99.90;;;;;;8240531;28;20034;-91
2022/08/27 05:33:46;;;;;;;8.20;6.28;;;17.20;99.90;;;;;;8234729;28;20078;-91
2022/08/27 05:37:46;;;;;;;9.25;6.72;;;17.30;99.90;;;;;;8238744;28;20062;-92
2022/08/27 05:41:47;;;;;;;10.65;7.03;;;17.40;99.90;;;;;;8233099;28;20030;-91
2022/08/27 05:45:48;;;;;;;9.82;7.10;;;17.60;99.90;;;;;;8237308;28;20035;-91
2022/08/27 05:49:52;;;;;;;9.77;6.45;;;17.60;99.90;;;;;;8230806;28;20030;-91
2022/08/27 05:53:58;;;;;;;8.60;6.43;;;18.00;99.90;;;;;;8233969;28;20027;-93
2022/08/27 05:57:59;;;;;;;7.40;6.05;;;18.20;99.90;;;;;;8229856;28;20026;-90
2022/08/27 06:01:59;;;;;;;7.65;6.40;;;18.40;99.90;;;;;;8224664;28;20377;-93
2022/08/27 06:06:06;;;;;;;8.13;5.90;;;18.50;99.90;;;;;;8256439;28;20022;-93
2022/08/27 06:10:07;;;;;;;7.93;6.32;;;18.50;99.90;;;;;;8244584;28;20027;-93
2022/08/27 06:14:08;;;;;;;8.27;6.43;;;18.70;99.90;;;;;;8242823;28;20023;-93
2022/08/27 06:18:08;;;;;;;7.32;6.10;;;18.70;99.90;;;;;;8251207;28;20556;-93
2022/08/27 06:22:09;;;;;;;7.93;6.43;;;18.90;99.90;;;;;;8249457;28;20026;-93
2022/08/27 06:26:12;;;;;;;7.22;6.18;;;18.80;99.90;;;;;;8246635;28;20058;-92
2022/08/27 06:30:13;;;;;;;9.63;6.97;;;18.90;99.90;;;;;;8247937;28;20042;-95
2022/08/27 06:34:14;;;;;;;8.30;6.95;;;18.90;99.90;;;;;;8240762;28;20600;-93
2022/08/27 06:38:15;;;;;;;10.35;7.53;;;19.10;99.90;;;;;;8229968;28;20424;-93
2022/08/27 06:42:15;;;;;;;10.43;7.38;;;19.20;99.90;;;;;;8231669;28;20027;-93
2022/08/27 06:46:19;;;;;;;11.02;8.05;;;19.20;99.90;;;;;;8248427;28;20026;-94
2022/08/27 06:50:20;;;;;;;13.82;9.32;;;19.50;99.90;;;;;;8237999;28;20027;-93
2022/08/27 06:54:28;;;;;;;13.63;9.75;;;19.90;99.90;;;;;;8246290;28;20027;-93
2022/08/27 06:58:29;;;;;;;12.48;9.75;;;19.90;99.90;;;;;;8231060;28;20027;-93
2022/08/27 07:02:31;;;;;;;14.57;10.35;;;20.20;99.90;;;;;;8244411;28;20023;-92
2022/08/27 07:06:32;;;;;;;15.75;10.63;;;20.40;99.90;;;;;;8233701;28;20404;-91
2022/08/27 07:10:42;;;;;;;18.77;13.00;;;20.70;99.90;;;;;;8236223;28;20038;-91
2022/08/27 08:37:28;;;;;;;;;;;21.70;99.90;;;;;;8374590;27;20474;-78
2022/08/27 08:41:39;;;;;;;26.63;18.35;;;22.80;99.90;;;;;;8414411;28;19987;-79
2022/08/27 08:45:42;;;;;;;25.80;17.92;;;23.40;99.90;;;;;;8405538;28;20028;-79
2022/08/27 08:50:01;;;;;;;27.85;19.17;;;23.90;99.90;;;;;;8394602;28;20024;-79
2022/08/27 08:54:04;;;;;;;31.33;18.63;;;23.80;99.90;;;;;;8401657;28;20511;-77
2022/08/27 08:58:40;;;;;;;28.08;18.50;;;23.40;99.90;;;;;;8401829;28;20044;-79
2022/08/27 09:02:49;;;;;;;27.30;17.30;;;23.30;99.90;;;;;;8344122;28;20115;-79
2022/08/27 09:07:19;;;;;;;25.45;17.23;;;23.70;99.90;;;;;;8408760;28;20107;-79
2022/08/27 09:11:35;;;;;;;25.63;17.80;;;24.20;99.90;;;;;;8397070;28;20044;-79
2022/08/27 09:15:37;;;;;;;27.58;16.58;;;24.60;99.90;;;;;;8413920;28;20032;-78
2022/08/27 09:19:37;;;;;;;24.75;17.77;;;25.30;99.90;;;;;;8417844;28;20103;-78
2022/08/27 09:24:01;;;;;;;28.10;19.85;;;25.40;99.90;;;;;;8416509;28;20397;-78
2022/08/27 09:29:14;;;;;;;25.80;18.25;;;25.70;99.90;;;;;;8410521;28;20370;-79
2022/08/27 09:32:32;;;;;;;24.00;17.63;;;25.40;99.90;;;;;;8416641;28;20070;-79
2022/08/27 09:36:33;;;;;;;27.48;17.60;;;26.20;99.90;;;;;;8387462;28;20037;-78
2022/08/27 09:40:49;;;;;;;26.88;18.15;;;25.80;99.90;;;;;;8376463;28;20092;-78
2022/08/27 09:44:53;;;;;;;25.15;18.00;;;25.30;99.90;;;;;;8385709;28;20028;-78
2022/08/27 09:48:54;;;;;;;27.17;17.88;;;25.00;99.90;;;;;;8376972;28;20471;-78
2022/08/27 09:52:58;;;;;;;24.27;16.88;;;24.90;99.90;;;;;;8376213;28;20029;-79
2022/08/27 09:56:59;;;;;;;21.48;16.30;;;25.30;99.90;;;;;;8373640;28;20028;-79
2022/08/27 10:01:15;;;;;;;22.10;16.48;;;25.40;99.90;;;;;;8392845;28;20103;-78
2022/08/27 10:05:35;;;;;;;23.67;16.92;;;24.60;99.90;;;;;;8373626;28;20056;-77
2022/08/27 10:09:42;;;;;;;24.15;17.50;;;23.50;99.90;;;;;;8375078;28;20032;-78
2022/08/27 10:13:45;;;;;;;25.85;18.85;;;22.70;99.90;;;;;;8367416;28;20035;-78
2022/08/27 10:18:13;;;;;;;29.73;20.63;;;22.50;99.90;;;;;;8391754;28;20094;-78
2022/08/27 10:22:36;;;;;;;28.10;19.90;;;22.40;99.90;;;;;;8369467;28;20021;-78
2022/08/27 10:26:42;;;;;;;30.65;20.60;;;21.90;99.90;;;;;;8390771;28;20054;-78
2022/08/27 10:30:52;;;;;;;27.75;20.30;;;21.60;99.90;;;;;;8391649;28;20107;-78
2022/08/27 10:35:09;;;;;;;28.40;18.23;;;21.30;99.90;;;;;;8390653;28;20028;-79
2022/08/27 10:39:35;;;;;;;35.72;19.88;;;20.50;99.90;;;;;;8376607;28;20459;-80
2022/08/27 10:43:50;;;;;;;35.80;23.88;;;19.70;99.90;;;;;;8376373;28;20035;-80
2022/08/27 10:48:10;;;;;;;37.42;23.38;;;19.50;99.90;;;;;;8374901;28;20017;-78
2022/08/27 10:52:20;;;;;;;38.03;22.95;;;19.30;99.90;;;;;;8389972;28;20434;-78
2022/08/27 10:56:32;;;;;;;38.65;23.77;;;19.40;99.90;;;;;;8374515;28;20032;-78
2022/08/27 11:00:52;;;;;;;43.47;25.90;;;19.40;99.90;;;;;;8393049;28;20048;-82
2022/08/27 11:04:58;;;;;;;37.90;23.52;;;19.30;99.90;;;;;;8391854;28;20024;-86
2022/08/27 11:09:13;;;;;;;39.08;23.58;;;19.30;99.90;;;;;;8373200;28;20024;-88
2022/08/27 11:13:37;;;;;;;39.03;23.92;;;19.10;99.90;;;;;;8372848;28;20024;-89
2022/08/27 11:18:03;;;;;;;31.75;20.63;;;19.20;99.90;;;;;;8386572;28;20027;-89
2022/08/27 11:22:29;;;;;;;32.22;20.65;;;19.30;99.90;;;;;;8389239;28;20466;-89
2022/08/27 11:26:32;;;;;;;29.98;19.50;;;19.30;99.90;;;;;;8386651;28;20051;-87
2022/08/27 11:30:54;;;;;;;28.88;19.40;;;19.20;99.90;;;;;;8371566;28;20020;-85
2022/08/27 11:35:15;;;;;;;29.75;20.17;;;19.40;99.90;;;;;;8388247;28;20036;-85
2022/08/27 11:39:41;;;;;;;30.63;19.70;;;19.40;99.90;;;;;;8366506;28;20047;-84
2022/08/27 11:43:43;;;;;;;30.33;20.77;;;19.30;99.90;;;;;;8390243;28;20162;-84
2022/08/27 11:47:55;;;;;;;31.15;19.27;;;19.30;99.90;;;;;;8386600;28;20020;-82
2022/08/27 11:51:59;;;;;;;26.02;16.70;;;19.40;99.90;;;;;;8370514;28;20058;-84
2022/08/27 11:56:34;;;;;;;27.95;16.00;;;19.40;99.90;;;;;;8391032;28;20024;-83
2022/08/27 12:00:41;;;;;;;21.95;15.05;;;19.10;99.90;;;;;;8373212;28;20039;-83
2022/08/27 12:04:41;;;;;;;18.60;11.68;;;19.20;99.90;;;;;;8372435;28;20428;-82
2022/08/27 12:08:42;;;;;;;13.38;9.65;;;19.10;99.90;;;;;;8372442;28;20025;-83
2022/08/27 12:13:16;;;;;;;17.13;11.15;;;19.10;99.90;;;;;;8372620;28;20044;-82
2022/08/27 12:17:34;;;;;;;14.50;10.60;;;19.00;99.90;;;;;;8390899;28;20025;-82
2022/08/27 12:22:04;;;;;;;15.10;9.93;;;19.00;99.90;;;;;;8377425;28;20086;-82
2022/08/27 12:26:24;;;;;;;10.55;7.70;;;19.00;99.90;;;;;;8388413;28;20384;-82
2022/08/27 12:30:38;;;;;;;8.88;6.47;;;19.10;99.90;;;;;;8387488;28;20536;-82
2022/08/27 12:34:46;;;;;;;9.15;5.90;;;19.20;99.90;;;;;;8368248;28;20123;-81
2022/08/27 12:38:51;;;;;;;8.25;5.82;;;19.20;99.90;;;;;;8371392;28;20509;-81
2022/08/27 12:43:06;;;;;;;8.10;5.22;;;19.00;99.90;;;;;;8371433;28;20498;-81
2022/08/27 12:47:10;;;;;;;12.68;8.70;;;19.20;99.90;;;;;;8371596;28;20089;-81
2022/08/27 12:51:25;;;;;;;15.60;10.38;;;19.40;99.90;;;;;;8372394;28;20390;-81
2022/08/27 12:55:44;;;;;;;14.60;9.60;;;19.40;99.90;;;;;;8390735;28;20412;-81
2022/08/27 13:00:07;;;;;;;17.42;9.90;;;19.30;99.90;;;;;;8386503;28;20024;-81
2022/08/27 13:04:22;;;;;;;14.13;10.10;;;19.30;99.90;;;;;;8386138;28;20028;-82
2022/08/27 13:08:30;;;;;;;17.38;10.45;;;19.60;99.90;;;;;;8370462;28;20020;-80
2022/08/27 13:12:31;;;;;;;14.10;9.95;;;19.90;99.90;;;;;;8375451;28;20032;-81
2022/08/27 13:16:31;;;;;;;13.35;9.27;;;20.50;99.90;;;;;;8376552;28;20040;-81
2022/08/27 13:20:36;;;;;;;12.70;8.90;;;20.60;99.90;;;;;;8377282;28;20029;-80
2022/08/27 13:24:49;;;;;;;12.00;8.32;;;20.60;99.90;;;;;;8375902;28;20040;-79
2022/08/27 13:28:51;;;;;;;11.60;8.75;;;20.80;99.90;;;;;;8376822;28;20025;-80
2022/08/27 13:32:52;;;;;;;9.65;7.20;;;20.80;99.90;;;;;;8395598;28;20051;-80
2022/08/27 13:37:01;;;;;;;8.32;5.38;;;20.80;99.90;;;;;;8370777;28;20032;-80
2022/08/27 13:41:08;;;;;;;8.77;6.72;;;20.60;99.90;;;;;;8369213;28;20105;-80
2022/08/27 13:45:10;;;;;;;8.45;5.80;;;20.30;99.90;;;;;;8391487;28;20043;-80
2022/08/27 13:49:23;;;;;;;5.65;4.60;;;20.20;99.90;;;;;;8373569;28;20141;-79
2022/08/27 13:57:50;;;;;;;4.18;3.20;;;20.00;99.90;;;;;;8386761;28;20097;-80
2022/08/27 14:02:09;;;;;;;6.32;4.05;;;19.80;99.90;;;;;;8395414;28;20608;-79
2022/08/27 14:06:10;;;;;;;6.15;4.63;;;19.70;99.90;;;;;;8374636;28;20083;-80
2022/08/27 14:10:16;;;;;;;6.57;5.20;;;19.70;99.90;;;;;;8376456;28;20020;-81
2022/08/27 14:14:17;;;;;;;6.75;5.00;;;19.80;99.90;;;;;;8374616;28;20028;-82
2022/08/27 14:18:34;;;;;;;7.93;4.88;;;20.00;99.90;;;;;;8393347;28;20570;-81
2022/08/27 14:22:35;;;;;;;7.72;4.53;;;20.10;99.90;;;;;;8377650;28;20170;-81
2022/08/27 14:26:35;;;;;;;6.82;4.93;;;19.90;99.90;;;;;;8391076;28;20413;-81
2022/08/27 14:30:36;;;;;;;6.40;4.90;;;19.90;99.90;;;;;;8392120;28;20077;-80
2022/08/27 14:34:37;;;;;;;6.32;4.55;;;19.80;99.90;;;;;;8372533;28;20584;-81
2022/08/27 14:38:40;;;;;;;5.70;4.40;;;19.80;99.90;;;;;;8370722;28;20032;-81
2022/08/27 14:42:41;;;;;;;4.53;4.13;;;19.50;99.90;;;;;;8373192;28;20032;-81
2022/08/27 14:46:41;;;;;;;6.32;4.57;;;19.50;99.90;;;;;;8391119;28;20106;-81
2022/08/27 14:50:43;;;;;;;7.60;4.97;;;20.00;99.90;;;;;;8375210;28;20043;-82
2022/08/27 14:54:43;;;;;;;4.90;4.00;;;19.80;99.90;;;;;;8374605;28;20074;-82
2022/08/27 14:58:44;;;;;;;5.68;4.45;;;19.70;99.90;;;;;;8373330;28;20054;-82
2022/08/27 15:02:47;;;;;;;5.78;4.53;;;19.70;99.90;;;;;;8393245;28;20513;-81
2022/08/27 15:06:47;;;;;;;5.93;4.70;;;19.50;99.90;;;;;;8389780;28;20029;-81
2022/08/27 15:10:49;;;;;;;6.63;5.38;;;19.40;99.90;;;;;;8390082;28;20113;-81
2022/08/27 15:14:49;;;;;;;5.63;4.55;;;19.70;99.90;;;;;;8390555;28;20028;-81
2022/08/27 15:18:50;;;;;;;6.15;4.45;;;19.70;99.90;;;;;;8390107;28;20025;-81
2022/08/27 15:22:51;;;;;;;6.35;4.93;;;19.90;99.90;;;;;;8391982;28;20482;-81
2022/08/27 15:26:57;;;;;;;5.80;4.47;;;19.90;99.90;;;;;;8390480;28;20120;-81
2022/08/27 15:30:58;;;;;;;7.22;5.07;;;19.80;99.90;;;;;;8373494;28;20012;-81
2022/08/27 15:35:03;;;;;;;6.78;5.50;;;19.80;99.90;;;;;;8388264;28;20067;-81
2022/08/27 15:39:04;;;;;;;7.50;4.75;;;19.70;99.90;;;;;;8387446;28;20016;-81
2022/08/27 15:43:06;;;;;;;5.88;5.10;;;19.70;99.90;;;;;;8372019;28;20474;-81
2022/08/27 15:47:07;;;;;;;7.28;5.20;;;19.80;99.90;;;;;;8388523;28;20045;-81
2022/08/27 15:51:10;;;;;;;5.88;4.63;;;19.80;99.90;;;;;;8363955;28;21841;-82
2022/08/27 15:55:23;;;;;;;7.57;6.00;;;19.70;99.90;;;;;;8373301;28;20020;-81
2022/08/27 15:59:23;;;;;;;8.13;5.97;;;19.80;99.90;;;;;;8351588;28;20032;-81
2022/08/27 16:03:24;;;;;;;7.05;5.50;;;19.80;99.90;;;;;;8370939;28;20491;-81
2022/08/27 16:07:25;;;;;;;7.20;5.68;;;19.70;99.90;;;;;;8369712;28;20040;-81
2022/08/27 16:11:26;;;;;;;6.95;5.07;;;19.50;99.90;;;;;;8370307;28;20070;-81
2022/08/27 16:15:27;;;;;;;7.72;5.50;;;19.60;99.90;;;;;;8372041;28;20040;-80
2022/08/27 16:19:28;;;;;;;6.72;5.40;;;19.70;99.90;;;;;;8375928;28;20040;-81
2022/08/27 16:23:30;;;;;;;6.78;5.65;;;19.60;99.90;;;;;;8368629;28;20496;-81
2022/08/27 16:27:31;;;;;;;6.40;5.43;;;19.70;99.90;;;;;;8372257;28;20052;-81
2022/08/27 16:31:33;;;;;;;6.55;5.65;;;19.60;99.90;;;;;;8370723;28;20056;-82
2022/08/27 16:35:34;;;;;;;7.05;5.38;;;19.50;99.90;;;;;;8387991;28;20036;-80
2022/08/27 16:39:35;;;;;;;6.20;5.10;;;19.60;99.90;;;;;;8372954;28;20024;-80
2022/08/27 16:43:36;;;;;;;8.73;5.85;;;19.50;99.90;;;;;;8385035;28;20404;-80
2022/08/27 16:50:32;;;;;;;5.90;5.05;;;19.50;99.90;;;;;;8377884;28;20025;-80
2022/08/27 16:51:57;;;;;;;7.20;5.95;;;19.80;99.90;;;;;;8397128;28;20025;-79
2022/08/27 16:55:59;;;;;;;7.55;6.03;;;19.70;99.90;;;;;;8378494;28;20047;-80
2022/08/27 16:59:59;;;;;;;8.90;5.82;;;19.60;99.90;;;;;;8396400;28;20029;-80
2022/08/27 17:04:00;;;;;;;9.20;5.95;;;19.60;99.90;;;;;;8394228;28;20037;-79
2022/08/27 17:08:02;;;;;;;7.05;6.13;;;19.60;99.90;;;;;;8378039;28;20021;-80
2022/08/27 17:12:04;;;;;;;6.97;5.90;;;19.50;99.90;;;;;;8378663;28;20037;-83
2022/08/27 17:16:06;;;;;;;8.80;6.22;;;19.50;99.90;;;;;;8390593;28;20108;-82
2022/08/27 17:20:07;;;;;;;8.27;6.00;;;19.30;99.90;;;;;;8375605;28;20063;-80
2022/08/27 17:24:07;;;;;;;7.40;6.15;;;19.40;99.90;;;;;;8377276;28;20827;-81
2022/08/27 17:28:09;;;;;;;8.82;6.13;;;19.20;99.90;;;;;;8394634;28;20097;-81
2022/08/27 17:32:09;;;;;;;8.95;6.60;;;19.20;99.90;;;;;;8396803;28;20031;-81
2022/08/27 17:36:11;;;;;;;9.73;6.10;;;19.20;99.90;;;;;;8373578;28;20032;-80
2022/08/27 17:40:12;;;;;;;7.80;6.25;;;19.30;99.90;;;;;;8379062;28;20025;-81
2022/08/27 17:44:26;;;;;;;7.32;6.18;;;19.40;99.90;;;;;;8395594;28;20017;-79
2022/08/27 17:48:26;;;;;;;8.75;6.20;;;19.10;99.90;;;;;;8378947;28;20021;-81
2022/08/27 17:52:27;;;;;;;7.50;6.35;;;18.70;99.90;;;;;;8381922;28;20024;-81
2022/08/27 17:56:28;;;;;;;9.23;6.88;;;18.40;99.90;;;;;;8394167;28;20540;-81
2022/08/27 18:00:28;;;;;;;8.15;6.75;;;18.20;99.90;;;;;;8396520;28;20055;-81
2022/08/27 18:04:29;;;;;;;9.82;7.57;;;18.10;99.90;;;;;;8394647;28;20078;-81
2022/08/27 18:08:30;;;;;;;10.88;7.15;;;18.00;99.90;;;;;;8378575;28;20020;-81
2022/08/27 18:12:31;;;;;;;13.30;7.32;;;17.90;99.90;;;;;;8378468;28;20121;-82
2022/08/27 18:16:33;;;;;;;11.15;7.55;;;17.80;99.90;;;;;;8394599;28;20059;-81
2022/08/27 18:20:34;;;;;;;7.72;6.57;;;17.70;99.90;;;;;;8394797;28;20129;-80
2022/08/27 18:24:35;;;;;;;9.90;7.85;;;18.00;99.90;;;;;;8394087;28;20050;-80
2022/08/27 18:28:36;;;;;;;13.38;7.72;;;17.90;99.90;;;;;;8394307;28;20021;-81
2022/08/27 18:32:37;;;;;;;10.18;8.25;;;17.60;99.90;;;;;;8395417;28;20032;-81
2022/08/27 18:36:38;;;;;;;9.95;7.55;;;17.60;99.90;;;;;;8376862;28;20028;-81
2022/08/27 18:40:48;;;;;;;10.57;7.93;;;17.40;99.90;;;;;;8393770;28;20024;-79
2022/08/27 18:44:49;;;;;;;11.07;8.40;;;17.20;99.90;;;;;;8385190;28;20119;-79
2022/08/27 18:48:50;;;;;;;11.52;8.23;;;17.00;99.90;;;;;;8393868;28;20521;-81
2022/08/27 18:52:52;;;;;;;16.00;9.70;;;17.00;99.90;;;;;;8376803;28;20124;-81
2022/08/27 18:56:53;;;;;;;13.25;9.73;;;17.00;99.90;;;;;;8376047;28;20039;-81
2022/08/27 19:01:00;;;;;;;15.73;10.48;;;16.80;99.90;;;;;;8376824;28;20029;-81
2022/08/27 19:05:00;;;;;;;11.88;9.00;;;16.80;99.90;;;;;;8393766;28;20095;-81
2022/08/27 19:09:02;;;;;;;13.93;10.18;;;16.80;99.90;;;;;;8375127;28;20119;-81
2022/08/27 19:13:03;;;;;;;12.50;9.98;;;16.70;99.90;;;;;;8392684;28;20027;-81
2022/08/27 19:17:04;;;;;;;12.68;9.93;;;16.70;99.90;;;;;;8393462;28;20020;-81
2022/08/27 19:21:06;;;;;;;13.10;8.73;;;16.70;99.90;;;;;;8398456;28;20107;-81
2022/08/27 19:25:07;;;;;;;14.65;10.55;;;16.60;99.90;;;;;;8392967;28;20066;-79
2022/08/27 19:29:08;;;;;;;15.77;10.70;;;16.50;99.90;;;;;;8393550;28;20021;-81
2022/08/27 19:33:08;;;;;;;16.92;11.23;;;16.40;99.90;;;;;;8376000;28;20163;-80
2022/08/27 19:37:15;;;;;;;16.60;11.40;;;16.30;99.90;;;;;;8374915;28;20439;-81
2022/08/27 19:41:16;;;;;;;17.10;12.85;;;16.20;99.90;;;;;;8391606;28;20047;-81
2022/08/27 19:45:18;;;;;;;17.92;12.68;;;16.60;99.90;;;;;;8374370;28;20693;-81
2022/08/27 19:49:18;;;;;;;16.35;12.35;;;16.70;99.90;;;;;;8375323;28;20092;-83
2022/08/27 19:53:19;;;;;;;15.88;10.95;;;16.80;99.90;;;;;;8375361;28;20047;-81
2022/08/27 19:57:19;;;;;;;17.15;11.38;;;16.70;99.90;;;;;;8374745;28;20370;-80
2022/08/27 20:01:20;;;;;;;17.17;10.75;;;16.70;99.90;;;;;;8392090;28;20393;-81
2022/08/27 20:05:21;;;;;;;12.00;9.88;;;16.70;99.90;;;;;;8391276;28;20031;-81
2022/08/27 20:09:24;;;;;;;12.52;9.90;;;16.90;99.90;;;;;;8392745;28;20023;-81
2022/08/27 20:13:24;;;;;;;15.45;10.38;;;16.90;99.90;;;;;;8374855;28;20021;-81
2022/08/27 20:17:25;;;;;;;16.38;10.85;;;16.50;99.90;;;;;;8389845;28;20505;-81
2022/08/27 20:21:26;;;;;;;16.70;11.00;;;16.40;99.90;;;;;;8392575;28;20033;-80
2022/08/27 20:25:26;;;;;;;16.80;11.60;;;16.50;99.90;;;;;;8374122;28;20032;-81
2022/08/27 20:29:28;;;;;;;15.63;11.25;;;16.50;99.90;;;;;;8392770;28;20078;-81
2022/08/27 20:33:29;;;;;;;20.27;11.98;;;16.20;99.90;;;;;;8391578;28;20029;-81
2022/08/27 20:37:30;;;;;;;18.17;12.50;;;16.20;99.90;;;;;;8391751;28;20490;-82
2022/08/27 20:41:31;;;;;;;16.50;12.23;;;16.20;99.90;;;;;;8390854;28;20120;-81
2022/08/27 20:45:31;;;;;;;24.30;12.95;;;16.20;99.90;;;;;;8390490;28;20512;-80
2022/08/27 20:49:34;;;;;;;19.67;12.10;;;16.10;99.90;;;;;;8344265;22;20217;-82
2022/08/27 20:53:35;;;;;;;16.75;11.02;;;16.30;99.90;;;;;;8288665;28;20096;-82
2022/08/27 20:57:35;;;;;;;15.15;10.80;;;16.30;99.90;;;;;;8300490;28;20014;-82
2022/08/27 21:01:36;;;;;;;15.68;11.27;;;16.60;99.90;;;;;;8284603;28;20033;-82
2022/08/27 21:05:37;;;;;;;17.13;12.05;;;16.50;99.90;;;;;;8282604;28;20042;-82
2022/08/27 21:09:38;;;;;;;20.75;12.50;;;16.50;99.90;;;;;;8274720;28;20041;-82
2022/08/27 21:13:39;;;;;;;22.02;12.88;;;16.40;99.90;;;;;;8282752;28;20082;-82
2022/08/27 21:17:40;;;;;;;14.30;11.35;;;16.20;99.90;;;;;;8269026;28;20019;-82
2022/08/27 21:21:40;;;;;;;16.02;11.63;;;16.30;99.90;;;;;;8289128;28;20088;-82
2022/08/27 21:25:41;;;;;;;16.50;11.77;;;16.10;99.90;;;;;;8274383;28;20045;-82
2022/08/27 21:29:43;;;;;;;17.73;11.75;;;15.90;99.90;;;;;;8270524;28;20018;-82
2022/08/27 21:33:43;;;;;;;20.48;12.75;;;15.70;99.90;;;;;;8270362;28;20447;-82
2022/08/27 21:37:44;;;;;;;21.52;13.55;;;15.70;99.90;;;;;;8297887;28;20207;-82
2022/08/27 21:41:45;;;;;;;21.75;13.57;;;15.80;99.90;;;;;;8297012;28;20080;-82
2022/08/27 21:45:45;;;;;;;22.27;14.40;;;15.70;99.90;;;;;;8297165;28;20476;-82
2022/08/27 21:49:46;;;;;;;23.00;15.43;;;15.70;99.90;;;;;;8279339;28;20488;-82
2022/08/27 21:53:47;;;;;;;26.63;16.30;;;15.90;99.90;;;;;;8280083;28;20083;-82
2022/08/27 21:57:47;;;;;;;20.70;13.60;;;15.90;99.90;;;;;;8279990;28;20029;-82
2022/08/27 22:01:48;;;;;;;18.38;12.75;;;16.00;99.90;;;;;;8279918;28;20029;-82
2022/08/27 22:05:50;;;;;;;19.90;12.90;;;15.90;99.90;;;;;;8279560;28;20028;-82
2022/08/27 22:09:50;;;;;;;21.10;14.38;;;15.80;99.90;;;;;;8289840;28;20065;-82
2022/08/27 22:13:51;;;;;;;16.05;12.02;;;15.60;99.90;;;;;;8297785;28;20065;-82
2022/08/27 22:17:52;;;;;;;17.05;12.63;;;15.60;99.90;;;;;;8297014;28;20088;-82
2022/08/27 22:21:52;;;;;;;18.83;13.32;;;15.50;99.90;;;;;;8297029;28;20369;-83
2022/08/27 22:25:53;;;;;;;23.20;12.98;;;15.30;99.90;;;;;;8264138;28;20034;-82
2022/08/27 22:29:54;;;;;;;24.77;13.00;;;15.20;99.90;;;;;;8271679;28;20388;-82